Time;durP1;ratioP1;P1;durP2;ratioP2;P2;SDS_P1;SDS_P2;PMS_P1;PMS_P2;Temp;Humidity;BMP_temperature;BMP_pressure;BME280_temperature;BME280_humidity;BME280_pressure;Samples;Min_cycle;Max_cycle;Signal;HPM_P1;HPM_P2
2022/10/15 00:02:00;;;;;;;5.35;3.72;;;;;;;19.32;55.41;100677.44;5136122;27;20131;-61
2022/10/15 00:04:26;;;;;;;5.18;3.50;;;;;;;19.18;55.72;100661.00;5125458;28;20088;-61
2022/10/15 00:06:51;;;;;;;4.45;3.60;;;;;;;19.31;55.56;100681.16;5140273;27;20031;-61
2022/10/15 00:09:16;;;;;;;4.00;3.40;;;;;;;19.30;55.33;100676.78;5146935;27;20026;-62
2022/10/15 00:11:41;;;;;;;5.22;3.95;;;;;;;19.30;55.32;100674.09;5144969;27;20022;-61
2022/10/15 00:14:07;;;;;;;4.45;3.25;;;;;;;19.29;55.52;100669.72;5146741;27;20459;-61
2022/10/15 00:16:32;;;;;;;3.72;3.40;;;;;;;19.29;55.66;100669.72;5147185;27;20065;-61
2022/10/15 00:18:58;;;;;;;4.72;3.42;;;;;;;19.27;55.77;100664.50;5147173;27;20030;-61
2022/10/15 00:21:24;;;;;;;4.25;3.60;;;;;;;19.23;55.65;100653.22;5146941;27;20066;-61
2022/10/15 00:23:49;;;;;;;5.60;3.63;;;;;;;19.28;55.71;100662.63;5144686;27;20034;-61
2022/10/15 00:26:21;;;;;;;4.00;3.05;;;;;;;19.27;55.70;100667.19;5146651;27;20092;-61
2022/10/15 00:28:48;;;;;;;4.32;3.58;;;;;;;19.28;55.59;100670.72;5146399;27;20392;-61
2022/10/15 00:31:15;;;;;;;3.13;2.83;;;;;;;19.27;55.51;100669.88;5146930;27;20026;-61
2022/10/15 00:33:42;;;;;;;4.32;3.78;;;;;;;19.18;55.43;100649.38;5146693;27;20067;-61
2022/10/15 00:36:11;;;;;;;4.32;3.65;;;;;;;19.26;55.65;100670.06;5146671;27;20027;-61
2022/10/15 00:38:36;;;;;;;3.83;3.05;;;;;;;19.25;55.63;100665.69;5146327;27;20034;-61
2022/10/15 00:41:03;;;;;;;4.68;3.70;;;;;;;19.24;55.35;100672.91;5146168;27;20027;-61
2022/10/15 00:43:39;;;;;;;4.60;3.17;;;;;;;19.23;55.31;100674.78;5146206;27;20660;-62
2022/10/15 00:46:06;;;;;;;4.75;3.05;;;;;;;19.23;55.70;100668.56;5146685;27;20019;-61
2022/10/15 00:48:31;;;;;;;4.97;3.40;;;;;;;19.18;55.57;100669.09;5144994;27;20057;-61
2022/10/15 00:50:59;;;;;;;4.15;3.42;;;;;;;19.22;55.24;100672.28;5146187;27;20019;-61
2022/10/15 00:53:24;;;;;;;4.13;3.67;;;;;;;19.14;55.59;100648.88;5133309;27;20023;-62
2022/10/15 00:55:50;;;;;;;4.90;3.13;;;;;;;19.20;55.31;100658.97;5124968;28;20142;-61
2022/10/15 00:58:27;;;;;;;4.00;3.25;;;;;;;19.19;55.32;100654.59;5125250;28;20026;-62
2022/10/15 01:00:53;;;;;;;4.50;2.95;;;;;;;19.19;55.19;100659.97;5124437;28;20051;-62
2022/10/15 01:03:19;;;;;;;4.55;3.30;;;;;;;19.12;55.38;100648.25;5124573;28;20158;-62
2022/10/15 01:05:47;;;;;;;3.15;2.80;;;;;;;19.19;55.53;100664.53;5129835;27;20136;-62
2022/10/15 01:08:12;;;;;;;4.63;2.95;;;;;;;19.18;55.40;100661.00;5144577;27;20031;-62
2022/10/15 01:10:46;;;;;;;4.70;3.17;;;;;;;19.18;55.39;100654.78;5145534;27;20023;-62
2022/10/15 01:13:30;;;;;;;4.45;3.05;;;;;;;19.18;55.34;100654.78;5145891;27;20039;-61
2022/10/15 01:15:59;;;;;;;3.80;3.33;;;;;;;19.17;55.51;100659.31;5146082;27;20472;-61
2022/10/15 01:18:33;;;;;;;3.53;3.03;;;;;;;19.16;55.19;100659.50;5127203;27;20027;-61
2022/10/15 01:21:05;;;;;;;3.55;3.22;;;;;;;19.08;55.28;100648.78;5144439;27;20034;-61
2022/10/15 01:23:55;;;;;;;4.32;3.50;;;;;;;19.15;55.58;100663.19;5143406;27;20038;-62
2022/10/15 01:26:47;;;;;;;4.05;3.03;;;;;;;19.14;55.42;100651.59;5145461;27;20027;-61
2022/10/15 01:29:57;;;;;;;3.30;2.88;;;;;;;19.14;55.29;100654.28;5144446;27;20030;-61
2022/10/15 01:32:26;;;;;;;3.95;3.00;;;;;;;19.01;55.24;100629.75;5143759;27;20038;-61
2022/10/15 01:35:28;;;;;;;3.75;2.80;;;;;;;19.13;55.40;100647.22;5144311;27;20049;-61
2022/10/15 01:38:17;;;;;;;3.63;3.25;;;;;;;19.11;55.08;100641.16;5144186;27;20027;-61
2022/10/15 01:40:48;;;;;;;3.63;3.30;;;;;;;19.11;55.49;100641.16;5144947;27;20033;-61
2022/10/15 01:43:19;;;;;;;3.53;3.05;;;;;;;19.11;55.44;100640.31;5144158;27;20039;-61
2022/10/15 01:45:52;;;;;;;3.85;3.45;;;;;;;19.11;55.28;100643.00;5144286;27;20027;-60
2022/10/15 01:48:18;;;;;;;3.58;2.80;;;;;;;19.11;55.24;100640.31;5144166;27;20019;-60
2022/10/15 01:50:46;;;;;;;3.30;3.00;;;;;;;19.02;55.39;100628.75;5143853;27;20027;-60
2022/10/15 01:53:14;;;;;;;3.25;2.95;;;;;;;19.10;55.32;100639.47;5131644;27;20114;-60
2022/10/15 01:55:41;;;;;;;3.33;2.97;;;;;;;19.09;55.32;100632.41;5122683;28;20058;-60
2022/10/15 01:58:07;;;;;;;3.17;2.60;;;;;;;19.09;55.25;100634.28;5122787;28;20701;-60
2022/10/15 02:00:33;;;;;;;3.50;2.90;;;;;;;19.09;55.51;100620.81;5123196;28;20031;-61
2022/10/15 02:03:03;;;;;;;3.65;3.20;;;;;;;19.09;55.47;100628.88;5124503;28;20023;-61
2022/10/15 02:05:34;;;;;;;3.22;2.75;;;;;;;19.07;55.52;100629.03;5126323;27;20484;-61
2022/10/15 02:08:13;;;;;;;3.20;2.63;;;;;;;19.08;55.08;100624.53;5144857;27;20418;-60
2022/10/15 02:10:41;;;;;;;2.85;2.55;;;;;;;19.08;55.21;100613.75;5144539;27;20019;-60
2022/10/15 02:13:13;;;;;;;3.10;2.80;;;;;;;19.07;55.37;100610.19;5144784;27;20027;-60
2022/10/15 02:15:51;;;;;;;3.60;2.92;;;;;;;19.07;55.55;100606.66;5143637;27;20298;-61
2022/10/15 02:18:38;;;;;;;3.45;2.80;;;;;;;19.06;55.34;100611.22;5143727;27;20027;-60
2022/10/15 02:21:11;;;;;;;3.22;2.67;;;;;;;19.06;55.25;100616.59;5143524;27;20027;-61
2022/10/15 02:24:05;;;;;;;3.70;2.95;;;;;;;19.07;55.49;100614.75;5125190;27;20038;-61
2022/10/15 02:26:32;;;;;;;2.85;2.55;;;;;;;18.94;55.25;100599.97;5124203;28;20523;-61
2022/10/15 02:28:58;;;;;;;3.28;2.60;;;;;;;19.01;55.14;100604.69;5122575;28;20032;-61
2022/10/15 02:31:24;;;;;;;3.00;2.70;;;;;;;19.03;55.35;100614.28;5122840;28;20032;-61
2022/10/15 02:33:52;;;;;;;3.00;2.70;;;;;;;19.03;55.05;100599.94;5123053;28;20476;-61
2022/10/15 02:36:18;;;;;;;3.08;2.53;;;;;;;19.03;55.05;100602.63;5125484;28;20099;-61
2022/10/15 02:38:44;;;;;;;3.22;2.47;;;;;;;19.02;55.05;100604.50;5127285;28;20023;-60
2022/10/15 02:41:09;;;;;;;3.35;3.03;;;;;;;19.02;55.36;100603.66;5109654;28;20031;-61
2022/10/15 02:43:35;;;;;;;3.08;2.78;;;;;;;19.02;54.98;100603.66;5126938;28;20028;-60
2022/10/15 02:46:00;;;;;;;4.38;2.95;;;;;;;18.94;55.29;100591.91;5127112;28;20031;-61
2022/10/15 02:48:26;;;;;;;3.42;3.03;;;;;;;19.02;55.06;100600.97;5128036;28;20024;-60
2022/10/15 02:50:51;;;;;;;3.58;3.05;;;;;;;19.02;54.99;100600.97;5126818;28;20027;-60
2022/10/15 02:53:16;;;;;;;3.28;2.80;;;;;;;19.01;55.25;100593.91;5128251;28;20038;-60
2022/10/15 02:55:41;;;;;;;3.55;2.75;;;;;;;19.02;55.06;100590.19;5127640;28;20042;-61
2022/10/15 02:58:07;;;;;;;4.05;2.88;;;;;;;19.00;55.31;100595.75;5126219;28;20053;-61
2022/10/15 03:00:32;;;;;;;2.80;2.45;;;;;;;18.97;54.91;100588.03;5127801;28;20032;-61
2022/10/15 03:02:57;;;;;;;3.65;2.72;;;;;;;19.00;55.16;100589.53;5126921;28;20028;-61
2022/10/15 03:05:23;;;;;;;3.50;2.75;;;;;;;18.88;55.13;100576.44;5129275;27;20460;-61
2022/10/15 03:07:48;;;;;;;2.85;2.45;;;;;;;18.99;55.32;100583.31;5148252;27;20109;-61
2022/10/15 03:10:13;;;;;;;3.47;2.90;;;;;;;18.99;54.99;100588.69;5148087;27;20031;-61
2022/10/15 03:12:39;;;;;;;3.30;2.55;;;;;;;18.99;55.07;100586.00;5148260;27;20091;-61
2022/10/15 03:15:05;;;;;;;3.58;3.20;;;;;;;18.96;55.12;100578.28;5148293;27;20031;-61
2022/10/15 03:17:30;;;;;;;3.25;2.75;;;;;;;18.98;54.92;100581.59;5148247;27;20023;-61
2022/10/15 03:19:55;;;;;;;2.95;2.40;;;;;;;18.95;55.17;100579.28;5148312;27;20042;-61
2022/10/15 03:22:20;;;;;;;3.17;2.50;;;;;;;18.89;55.13;100566.50;5147296;27;20027;-61
2022/10/15 03:24:45;;;;;;;3.63;2.42;;;;;;;18.96;54.92;100575.56;5146599;27;20056;-61
2022/10/15 03:27:11;;;;;;;3.22;2.40;;;;;;;18.94;54.96;100581.13;5147694;27;20068;-61
2022/10/15 03:29:36;;;;;;;3.35;2.58;;;;;;;18.95;55.14;100577.44;5148075;27;20516;-62
2022/10/15 03:32:01;;;;;;;3.13;2.83;;;;;;;18.95;54.89;100574.75;5147980;27;20035;-62
2022/10/15 03:34:26;;;;;;;2.83;2.13;;;;;;;18.95;55.23;100568.50;5148216;27;20029;-61
2022/10/15 03:36:52;;;;;;;2.92;2.30;;;;;;;18.83;55.02;100549.22;5137906;27;20694;-61
2022/10/15 03:39:17;;;;;;;3.00;2.47;;;;;;;18.67;55.02;100515.09;5127044;28;20427;-61
2022/10/15 03:41:42;;;;;;;3.55;2.70;;;;;;;18.87;55.01;100547.00;5127245;28;20119;-61
2022/10/15 03:44:09;;;;;;;3.67;2.85;;;;;;;18.93;54.97;100551.69;5126995;28;20062;-61
2022/10/15 03:46:34;;;;;;;2.90;2.45;;;;;;;18.92;54.99;100553.53;5126968;28;20030;-60
2022/10/15 03:49:00;;;;;;;3.42;2.80;;;;;;;18.93;55.09;100548.97;5127096;28;20024;-60
2022/10/15 03:51:25;;;;;;;2.55;2.33;;;;;;;18.90;54.97;100543.94;5126940;28;20441;-60
2022/10/15 03:53:51;;;;;;;2.55;2.22;;;;;;;18.92;55.29;100555.41;5127034;28;20035;-60
2022/10/15 03:56:16;;;;;;;3.10;2.72;;;;;;;18.90;54.91;100543.94;5126494;28;20051;-61
2022/10/15 03:58:41;;;;;;;2.90;2.50;;;;;;;18.92;54.85;100550.84;5126481;28;20050;-61
2022/10/15 04:01:11;;;;;;;2.72;2.53;;;;;;;18.87;54.69;100542.47;5126292;28;20480;-60
2022/10/15 04:03:37;;;;;;;2.75;2.33;;;;;;;18.90;54.67;100558.28;5142635;27;20065;-59
2022/10/15 04:06:02;;;;;;;2.42;2.22;;;;;;;18.90;54.86;100547.50;5144054;27;20019;-59
2022/10/15 04:08:28;;;;;;;2.75;2.40;;;;;;;18.89;55.04;100547.66;5147247;27;20027;-60
2022/10/15 04:10:53;;;;;;;3.03;2.50;;;;;;;18.90;55.06;100558.28;5146528;27;20034;-60
2022/10/15 04:13:18;;;;;;;3.65;2.72;;;;;;;18.85;54.74;100549.84;5141071;27;20038;-61
2022/10/15 04:15:43;;;;;;;2.47;2.28;;;;;;;18.89;55.23;100555.72;5126443;28;20031;-61
2022/10/15 04:18:09;;;;;;;3.33;2.22;;;;;;;18.88;55.22;100560.28;5126001;28;20161;-61
2022/10/15 04:20:34;;;;;;;3.03;2.75;;;;;;;18.86;54.94;100550.69;5126613;28;20027;-61
2022/10/15 04:22:59;;;;;;;2.17;1.98;;;;;;;18.87;54.82;100547.00;5126325;28;20505;-61
2022/10/15 04:25:25;;;;;;;2.78;2.38;;;;;;;18.85;54.75;100549.84;5127440;27;20531;-61
2022/10/15 04:27:52;;;;;;;2.85;2.30;;;;;;;18.88;54.67;100560.28;5134896;27;20035;-61
2022/10/15 04:30:17;;;;;;;2.60;2.15;;;;;;;18.85;55.08;100557.94;5125916;28;20093;-61
2022/10/15 04:32:42;;;;;;;2.70;2.40;;;;;;;18.87;54.81;100566.69;5125607;28;20041;-61
2022/10/15 04:35:07;;;;;;;2.45;2.25;;;;;;;18.87;54.72;100561.31;5126165;27;20042;-61
2022/10/15 04:37:33;;;;;;;3.20;2.53;;;;;;;18.88;54.82;100564.84;5134545;27;20062;-62
2022/10/15 04:39:58;;;;;;;2.40;2.20;;;;;;;18.84;54.78;100564.34;5126005;27;20088;-62
2022/10/15 04:42:23;;;;;;;2.55;2.33;;;;;;;18.71;54.99;100535.28;5146050;27;20423;-61
2022/10/15 04:44:48;;;;;;;2.50;2.30;;;;;;;18.87;54.88;100560.47;5134923;27;20037;-61
2022/10/15 04:47:14;;;;;;;2.47;2.17;;;;;;;18.78;54.62;100548.06;5142039;27;20102;-61
2022/10/15 04:49:39;;;;;;;3.03;2.45;;;;;;;18.86;54.84;100561.47;5146268;27;20031;-61
2022/10/15 04:52:04;;;;;;;3.10;2.80;;;;;;;18.86;55.04;100569.56;5146150;27;20034;-61
2022/10/15 04:54:30;;;;;;;2.03;1.83;;;;;;;18.86;54.92;100570.41;5145784;27;20038;-62
2022/10/15 04:56:55;;;;;;;2.67;2.42;;;;;;;18.86;54.96;100575.81;5146021;27;20058;-62
2022/10/15 04:59:20;;;;;;;3.17;2.35;;;;;;;18.83;54.92;100576.16;5145156;27;20031;-61
2022/10/15 05:01:45;;;;;;;3.67;2.15;;;;;;;18.85;55.07;100566.03;5145070;27;20060;-61
2022/10/15 05:04:11;;;;;;;2.30;2.05;;;;;;;18.86;55.12;100559.63;5145741;27;20015;-61
2022/10/15 05:06:36;;;;;;;2.67;2.15;;;;;;;18.86;55.15;100569.56;5139330;27;20023;-63
2022/10/15 05:09:02;;;;;;;2.35;2.13;;;;;;;18.61;55.01;100526.56;5145318;27;20035;-61
2022/10/15 05:11:27;;;;;;;3.83;2.22;;;;;;;18.77;55.13;100547.22;5143921;27;20027;-62
2022/10/15 05:13:56;;;;;;;3.20;2.88;;;;;;;18.77;55.10;100546.38;5134665;27;20034;-61
2022/10/15 05:16:27;;;;;;;2.40;2.13;;;;;;;18.86;55.29;100564.16;5125452;28;20056;-61
2022/10/15 05:18:56;;;;;;;2.13;1.92;;;;;;;18.84;55.09;100564.34;5124671;28;20023;-61
2022/10/15 05:21:21;;;;;;;;;;;;;;;18.85;55.27;100562.50;5125512;28;20100;-61
2022/10/15 05:23:48;;;;;;;4.10;2.20;;;;;;;18.84;55.18;100564.34;5124576;28;19979;-61
2022/10/15 05:26:15;;;;;;;2.58;2.03;;;;;;;18.85;55.43;100570.56;5124860;28;20023;-62
2022/10/15 05:28:41;;;;;;;2.47;2.10;;;;;;;18.84;55.18;100569.75;5124649;28;20028;-61
2022/10/15 05:31:17;;;;;;;3.05;2.60;;;;;;;18.74;55.20;100552.97;5136178;27;20030;-62
2022/10/15 05:33:43;;;;;;;2.25;1.85;;;;;;;18.84;55.38;100568.91;5134840;27;20087;-62
2022/10/15 05:36:18;;;;;;;3.80;2.58;;;;;;;18.84;55.42;100567.03;5133298;27;20506;-62
2022/10/15 05:38:51;;;;;;;2.45;2.08;;;;;;;18.84;55.47;100572.44;5131599;27;20023;-62
2022/10/15 05:41:16;;;;;;;3.75;2.47;;;;;;;18.84;55.29;100574.28;5134033;27;20031;-62
2022/10/15 05:43:41;;;;;;;4.32;2.42;;;;;;;18.84;55.34;100569.75;5135375;27;20045;-62
2022/10/15 05:46:07;;;;;;;2.50;2.30;;;;;;;18.79;55.35;100553.28;5133943;27;20019;-62
2022/10/15 05:48:32;;;;;;;3.20;2.47;;;;;;;18.83;55.62;100568.06;5134892;27;20054;-61
2022/10/15 05:51:02;;;;;;;2.28;2.00;;;;;;;18.83;55.65;100573.44;5134222;27;20086;-61
2022/10/15 05:53:27;;;;;;;2.50;2.08;;;;;;;18.72;55.51;100552.28;5142205;27;20034;-62
2022/10/15 05:55:53;;;;;;;3.05;2.25;;;;;;;18.85;55.81;100575.97;5144855;27;20043;-61
2022/10/15 05:58:18;;;;;;;2.78;2.35;;;;;;;18.84;55.34;100572.44;5144625;27;20034;-61
2022/10/15 06:00:44;;;;;;;5.25;2.50;;;;;;;18.79;55.61;100566.75;5127523;27;20318;-60
2022/10/15 06:03:13;;;;;;;5.78;2.42;;;;;;;18.74;55.48;100561.06;5121331;27;20028;-60
2022/10/15 06:05:38;;;;;;;3.00;2.13;;;;;;;18.84;56.11;100576.97;5127690;27;20038;-60
2022/10/15 06:08:04;;;;;;;4.35;2.13;;;;;;;18.84;56.03;100574.28;5143427;27;20042;-61
2022/10/15 06:10:29;;;;;;;3.22;2.35;;;;;;;18.75;55.94;100567.28;5143325;27;20075;-61
2022/10/15 06:12:55;;;;;;;4.65;2.20;;;;;;;18.83;56.15;100576.16;5139145;27;20582;-61
2022/10/15 06:15:20;;;;;;;3.13;2.28;;;;;;;18.82;55.81;100574.47;5123776;28;20057;-60
2022/10/15 06:17:45;;;;;;;3.88;2.58;;;;;;;18.83;55.72;100576.16;5123834;28;20038;-60
2022/10/15 06:20:11;;;;;;;4.43;2.50;;;;;;;18.80;55.96;100589.97;5124098;28;20114;-62
2022/10/15 06:22:36;;;;;;;2.90;2.38;;;;;;;18.83;56.00;100576.16;5123992;28;20024;-62
2022/10/15 06:25:01;;;;;;;3.00;2.30;;;;;;;18.77;55.85;100567.91;5132926;27;20034;-62
2022/10/15 06:27:27;;;;;;;3.45;2.60;;;;;;;18.83;56.13;100570.75;5132734;27;20023;-62
2022/10/15 06:29:52;;;;;;;3.30;2.70;;;;;;;18.80;56.32;100564.88;5133779;27;20049;-62
2022/10/15 06:32:17;;;;;;;5.38;2.45;;;;;;;18.77;56.09;100559.84;5134645;28;20028;-64
2022/10/15 06:34:43;;;;;;;4.05;2.95;;;;;;;18.83;56.09;100570.75;5144637;28;20635;-60
2022/10/15 06:37:08;;;;;;;3.65;2.88;;;;;;;18.82;55.81;100561.00;5144550;27;20027;-62
2022/10/15 06:39:34;;;;;;;3.60;2.67;;;;;;;18.82;55.95;100571.78;5144131;28;20027;-62
2022/10/15 06:41:59;;;;;;;5.35;2.90;;;;;;;18.82;56.01;100560.13;5137844;28;20075;-61
2022/10/15 06:44:24;;;;;;;3.85;2.70;;;;;;;18.82;55.95;100569.09;5121389;28;20538;-59
2022/10/15 06:46:49;;;;;;;5.03;2.67;;;;;;;18.82;56.04;100571.78;5123548;28;20019;-61
2022/10/15 06:49:15;;;;;;;3.72;2.83;;;;;;;18.80;56.13;100568.41;5123686;28;20055;-61
2022/10/15 06:51:40;;;;;;;7.80;2.58;;;;;;;18.84;55.83;100582.38;5124425;28;20016;-61
2022/10/15 06:54:05;;;;;;;4.80;3.03;;;;;;;18.83;56.16;100576.16;5131240;28;20719;-61
2022/10/15 06:56:30;;;;;;;3.50;2.88;;;;;;;18.83;55.69;100581.53;5123209;28;20040;-60
2022/10/15 06:58:56;;;;;;;5.07;3.20;;;;;;;18.82;55.97;100579.88;5124912;28;20027;-60
2022/10/15 07:01:21;;;;;;;3.95;3.17;;;;;;;18.82;55.95;100582.56;5137736;28;20032;-61
2022/10/15 07:03:50;;;;;;;4.60;3.30;;;;;;;18.80;56.01;100572.97;5123933;28;20079;-61
2022/10/15 07:06:15;;;;;;;6.13;3.40;;;;;;;18.82;55.56;100576.31;5132661;28;20019;-60
2022/10/15 07:08:41;;;;;;;4.57;3.22;;;;;;;18.81;56.05;100577.31;5144166;27;20084;-61
2022/10/15 07:11:08;;;;;;;6.45;3.75;;;;;;;18.81;55.78;100572.78;5143885;28;20027;-60
2022/10/15 07:13:33;;;;;;;4.63;3.30;;;;;;;18.81;55.97;100578.16;5143681;27;20031;-61
2022/10/15 07:16:05;;;;;;;4.97;3.92;;;;;;;18.81;55.60;100580.03;5128752;28;20062;-61
2022/10/15 07:18:31;;;;;;;5.80;3.50;;;;;;;18.71;55.72;100567.63;5144244;27;20027;-61
2022/10/15 07:20:56;;;;;;;4.05;2.97;;;;;;;18.81;55.67;100577.31;5134719;27;20032;-61
2022/10/15 07:23:21;;;;;;;7.05;3.80;;;;;;;18.82;55.98;100579.00;5127665;28;20026;-61
2022/10/15 07:25:46;;;;;;;6.47;3.83;;;;;;;18.82;56.08;100582.56;5127119;28;20720;-61
2022/10/15 07:28:12;;;;;;;4.55;3.38;;;;;;;18.75;55.83;100568.09;5127220;28;20039;-61
2022/10/15 07:30:37;;;;;;;4.82;3.50;;;;;;;18.82;55.84;100577.16;5126364;28;20027;-61
2022/10/15 07:33:02;;;;;;;6.03;3.40;;;;;;;18.76;55.82;100571.63;5136251;27;20023;-61
2022/10/15 07:35:28;;;;;;;5.47;3.42;;;;;;;18.54;55.51;100551.69;5147563;27;20050;-60
2022/10/15 07:37:54;;;;;;;6.53;3.90;;;;;;;18.74;55.76;100571.81;5147637;27;20023;-61
2022/10/15 07:40:19;;;;;;;4.07;3.67;;;;;;;18.75;55.71;100573.50;5147110;27;20102;-61
2022/10/15 07:42:51;;;;;;;7.53;4.40;;;;;;;18.82;56.09;100597.84;5147816;27;20038;-62
2022/10/15 07:45:16;;;;;;;6.10;4.22;;;;;;;18.80;55.72;100598.03;5146810;27;20023;-61
2022/10/15 07:47:42;;;;;;;5.50;4.75;;;;;;;18.80;55.70;100600.72;5147660;27;20094;-61
2022/10/15 07:50:07;;;;;;;5.25;4.32;;;;;;;18.80;55.55;100602.59;5147249;27;20033;-60
2022/10/15 07:52:33;;;;;;;5.63;4.78;;;;;;;18.80;55.70;100606.13;5147454;27;20030;-60
2022/10/15 07:54:58;;;;;;;8.02;4.38;;;;;;;18.80;55.98;100600.72;5146901;27;20110;-60
2022/10/15 07:57:23;;;;;;;5.50;4.25;;;;;;;17.75;55.81;100417.09;5147158;27;20034;-60
2022/10/15 07:59:48;;;;;;;5.75;4.53;;;;;;;18.79;56.03;100595.53;5146397;27;20027;-60
2022/10/15 08:02:15;;;;;;;5.97;4.68;;;;;;;18.78;55.66;100597.38;5131563;27;20045;-60
2022/10/15 08:04:41;;;;;;;10.13;5.30;;;;;;;18.78;55.77;100597.38;5126726;28;20107;-60
2022/10/15 08:07:06;;;;;;;5.18;4.43;;;;;;;18.77;55.83;100595.69;5142759;27;20099;-60
2022/10/15 08:09:31;;;;;;;5.80;5.07;;;;;;;18.78;55.91;100610.03;5146967;27;20034;-60
2022/10/15 08:11:56;;;;;;;5.75;4.90;;;;;;;18.49;55.74;100555.72;5146966;27;20059;-60
2022/10/15 08:14:22;;;;;;;6.65;5.07;;;;;;;18.77;55.67;100595.69;5146587;27;20048;-60
2022/10/15 08:16:47;;;;;;;6.68;4.30;;;;;;;18.77;55.68;100592.16;5145813;27;20019;-60
2022/10/15 08:19:16;;;;;;;4.93;3.83;;;;;;;18.78;55.78;100602.78;5147146;27;20035;-61
2022/10/15 08:21:41;;;;;;;6.88;4.85;;;;;;;18.76;55.80;100596.72;5147027;27;20023;-60
2022/10/15 08:24:07;;;;;;;5.53;4.22;;;;;;;18.73;55.76;100588.97;5147022;27;20034;-61
2022/10/15 08:26:33;;;;;;;6.88;4.15;;;;;;;18.77;56.11;100589.47;5146455;27;20069;-61
2022/10/15 08:28:59;;;;;;;5.93;4.38;;;;;;;18.76;55.93;100585.94;5145676;27;20043;-61
2022/10/15 08:31:24;;;;;;;5.32;4.00;;;;;;;18.76;55.82;100582.41;5146464;27;20049;-60
2022/10/15 08:33:49;;;;;;;5.30;4.05;;;;;;;18.73;55.82;100573.69;5139726;27;20503;-60
2022/10/15 08:36:15;;;;;;;4.60;3.97;;;;;;;18.77;55.93;100573.31;5126055;28;20035;-60
2022/10/15 08:38:40;;;;;;;5.03;3.72;;;;;;;18.77;55.61;100570.63;5132343;27;20092;-60
2022/10/15 08:41:19;;;;;;;4.57;3.63;;;;;;;18.74;55.65;100563.75;5146068;27;20087;-60
2022/10/15 08:43:45;;;;;;;4.32;3.78;;;;;;;18.70;55.54;100554.34;5146288;27;20416;-61
2022/10/15 08:46:15;;;;;;;4.35;3.40;;;;;;;18.77;55.59;100559.84;5145204;27;20476;-61
2022/10/15 08:48:47;;;;;;;5.03;4.03;;;;;;;18.79;55.33;100563.22;5145185;27;20030;-60
2022/10/15 08:51:24;;;;;;;4.60;4.00;;;;;;;18.79;55.35;100560.50;5146342;27;20023;-60
2022/10/15 08:53:56;;;;;;;4.35;3.70;;;;;;;18.80;55.61;100556.81;5145131;27;20023;-60
2022/10/15 08:56:26;;;;;;;4.88;3.90;;;;;;;18.79;55.55;100547.06;5145905;27;20046;-60
2022/10/15 08:59:00;;;;;;;5.82;4.03;;;;;;;18.80;55.37;100546.88;5144525;27;20027;-60
2022/10/15 09:01:32;;;;;;;4.13;3.72;;;;;;;18.80;55.64;100544.16;5145973;27;20031;-60
2022/10/15 09:03:57;;;;;;;4.28;3.88;;;;;;;18.82;55.31;100536.75;5138363;27;20031;-60
2022/10/15 09:06:38;;;;;;;3.67;3.38;;;;;;;18.85;55.31;100531.00;5135747;27;20023;-61
2022/10/15 09:09:29;;;;;;;4.18;3.70;;;;;;;18.97;55.11;100529.59;5146101;27;20694;-61
2022/10/15 09:12:01;;;;;;;4.07;3.67;;;;;;;19.06;54.76;100527.69;5144389;27;20042;-60
2022/10/15 09:14:30;;;;;;;4.32;3.85;;;;;;;19.12;54.50;100534.22;5129684;27;20032;-60
2022/10/15 09:16:59;;;;;;;4.13;3.67;;;;;;;19.15;54.41;100531.16;5123860;27;20039;-60
2022/10/15 09:19:26;;;;;;;4.40;3.58;;;;;;;19.17;54.48;100535.34;5124023;28;20027;-60
2022/10/15 09:21:51;;;;;;;4.90;3.53;;;;;;;19.13;54.21;100508.94;5124971;27;20075;-60
2022/10/15 09:24:22;;;;;;;5.28;4.10;;;;;;;19.25;53.98;100520.16;5125131;28;20031;-60
2022/10/15 09:26:50;;;;;;;4.20;3.60;;;;;;;19.27;53.93;100518.94;5141779;27;20739;-60
2022/10/15 09:29:18;;;;;;;4.03;3.63;;;;;;;19.29;53.89;100527.69;5143665;27;20678;-60
2022/10/15 09:31:54;;;;;;;5.40;3.80;;;;;;;19.30;54.13;100537.44;5143816;27;20023;-60
2022/10/15 09:34:34;;;;;;;4.75;3.53;;;;;;;19.32;53.89;100526.47;5125157;28;20062;-60
2022/10/15 09:37:05;;;;;;;5.32;3.70;;;;;;;19.31;54.19;100528.34;5123478;28;20230;-58
2022/10/15 09:39:54;;;;;;;3.80;3.40;;;;;;;19.16;53.80;100498.66;5123364;28;20031;-61
2022/10/15 09:42:25;;;;;;;3.55;3.25;;;;;;;19.28;54.13;100523.31;5124504;28;20039;-60
2022/10/15 09:44:51;;;;;;;4.78;4.07;;;;;;;19.16;53.94;100514.00;5124064;28;20027;-60
2022/10/15 09:47:24;;;;;;;3.72;3.20;;;;;;;19.18;54.25;100514.63;5123691;28;20028;-61
2022/10/15 09:49:50;;;;;;;3.65;3.30;;;;;;;19.22;54.27;100521.34;5124642;28;20034;-61
2022/10/15 09:52:52;;;;;;;4.53;3.25;;;;;;;19.22;53.99;100521.34;5124792;27;20111;-61
2022/10/15 09:55:39;;;;;;;3.90;3.50;;;;;;;19.26;53.99;100500.25;5124014;28;20051;-60
2022/10/15 09:58:09;;;;;;;3.47;3.15;;;;;;;19.29;54.11;100505.28;5124306;28;20032;-60
2022/10/15 10:00:49;;;;;;;4.00;3.60;;;;;;;19.31;53.77;100503.25;5122615;28;20379;-60
2022/10/15 10:03:15;;;;;;;3.67;3.15;;;;;;;19.29;53.83;100499.91;5124454;28;20034;-61
2022/10/15 10:05:40;;;;;;;4.05;3.40;;;;;;;19.30;54.11;100499.72;5128175;27;20105;-61
2022/10/15 10:08:18;;;;;;;4.70;3.53;;;;;;;19.27;53.90;100486.59;5143145;27;20035;-60
2022/10/15 10:10:44;;;;;;;3.80;3.42;;;;;;;19.28;54.08;100485.56;5143061;27;20033;-60
2022/10/15 10:13:22;;;;;;;3.78;3.30;;;;;;;19.28;54.25;100477.47;5144680;27;20031;-60
2022/10/15 10:15:48;;;;;;;3.78;3.20;;;;;;;19.29;53.76;100481.88;5144559;27;20019;-59
2022/10/15 10:18:18;;;;;;;4.25;3.85;;;;;;;19.29;54.00;100475.66;5126552;27;20038;-60
2022/10/15 10:21:00;;;;;;;3.45;3.10;;;;;;;19.29;54.32;100476.47;5124181;28;20023;-60
2022/10/15 10:23:38;;;;;;;3.90;3.50;;;;;;;19.26;54.40;100462.53;5124001;28;20575;-61
2022/10/15 10:26:05;;;;;;;4.60;3.83;;;;;;;19.30;54.13;100469.22;5123919;28;20037;-60
2022/10/15 10:28:36;;;;;;;6.63;3.78;;;;;;;19.26;54.36;100467.91;5121853;28;20031;-60
2022/10/15 10:31:05;;;;;;;3.55;3.10;;;;;;;19.32;54.18;100481.50;5122470;28;20050;-60
2022/10/15 10:33:46;;;;;;;4.50;3.65;;;;;;;19.31;54.57;100473.59;5122778;28;20024;-60
2022/10/15 10:36:38;;;;;;;4.50;3.95;;;;;;;19.29;54.82;100471.09;5123066;28;20038;-60
2022/10/15 10:39:13;;;;;;;5.32;4.18;;;;;;;19.29;54.74;100472.94;5120035;28;20035;-60
2022/10/15 10:41:50;;;;;;;5.60;3.95;;;;;;;19.28;55.00;100461.31;5123328;28;20046;-60
2022/10/15 10:44:21;;;;;;;6.30;3.92;;;;;;;19.28;54.73;100471.25;5123555;28;20028;-61
2022/10/15 10:47:04;;;;;;;4.43;3.63;;;;;;;19.28;54.87;100457.78;5123770;28;20165;-60
2022/10/15 10:49:32;;;;;;;5.00;3.63;;;;;;;19.28;54.91;100453.22;5123846;28;20028;-60
2022/10/15 10:51:57;;;;;;;5.60;4.10;;;;;;;19.29;54.78;100452.22;5123674;28;20054;-60
2022/10/15 10:54:23;;;;;;;6.32;4.07;;;;;;;19.30;54.96;100447.66;5123868;28;20036;-61
2022/10/15 10:56:48;;;;;;;5.25;3.95;;;;;;;19.30;55.25;100442.28;5123783;28;20080;-60
2022/10/15 10:59:36;;;;;;;4.05;3.63;;;;;;;19.30;55.10;100450.38;5126014;28;20056;-60
2022/10/15 11:02:03;;;;;;;4.43;3.58;;;;;;;19.32;55.03;100456.41;5126550;27;20024;-60
2022/10/15 11:04:32;;;;;;;6.15;3.63;;;;;;;19.10;55.10;100423.06;5127876;28;20028;-60
2022/10/15 11:07:04;;;;;;;4.72;3.78;;;;;;;19.32;55.30;100453.69;5139356;27;20026;-61
2022/10/15 11:09:46;;;;;;;4.07;3.67;;;;;;;19.32;55.35;100451.84;5138520;27;20425;-61
2022/10/15 11:12:20;;;;;;;6.03;3.47;;;;;;;19.35;55.46;100447.94;5148428;27;20027;-62
2022/10/15 11:14:56;;;;;;;4.90;3.33;;;;;;;19.37;55.14;100446.75;5147454;27;20027;-62
2022/10/15 11:17:36;;;;;;;6.60;3.88;;;;;;;19.38;55.59;100440.34;5134378;27;20064;-61
2022/10/15 11:20:39;;;;;;;4.95;3.60;;;;;;;19.39;55.39;100435.78;5127436;28;20052;-61
2022/10/15 11:23:36;;;;;;;3.42;3.10;;;;;;;19.40;55.51;100435.59;5127294;28;20047;-61
2022/10/15 11:26:06;;;;;;;4.65;3.58;;;;;;;19.41;55.61;100425.63;5084564;28;20032;-61
2022/10/15 11:28:52;;;;;;;3.72;3.10;;;;;;;19.40;55.34;100435.59;5124830;28;20027;-61
2022/10/15 11:31:32;;;;;;;4.22;3.60;;;;;;;19.41;55.72;100426.50;5127315;28;20027;-61
2022/10/15 11:34:21;;;;;;;3.55;3.08;;;;;;;19.42;55.74;100421.94;5145158;27;20090;-61